sensor_id;sensor_type;location;lat;lon;timestamp;pressure;altitude;pressure_sealevel;temperature;humidity
39715;BME280;54166;53.172;-6.552;2023-04-21T00:00:40;99603.76;;;17.94;32.28
39715;BME280;54166;53.172;-6.552;2023-04-21T00:03:08;99604.58;;;17.93;32.35
39715;BME280;54166;53.172;-6.552;2023-04-21T00:05:35;99604.12;;;17.92;32.23
39715;BME280;54166;53.172;-6.552;2023-04-21T00:08:03;99603.41;;;17.90;32.12
39715;BME280;54166;53.172;-6.552;2023-04-21T00:10:31;99603.17;;;17.89;32.13
39715;BME280;54166;53.172;-6.552;2023-04-21T00:12:59;99615.83;;;17.87;32.02
39715;BME280;54166;53.172;-6.552;2023-04-21T00:15:26;99609.10;;;18.26;32.12
39715;BME280;54166;53.172;-6.552;2023-04-21T00:17:55;99600.52;;;17.52;32.08
39715;BME280;54166;53.172;-6.552;2023-04-21T00:20:22;99598.87;;;18.24;32.01
39715;BME280;54166;53.172;-6.552;2023-04-21T00:22:50;99602.33;;;17.83;32.08
39715;BME280;54166;53.172;-6.552;2023-04-21T00:25:18;99603.07;;;18.22;32.07
39715;BME280;54166;53.172;-6.552;2023-04-21T00:27:45;99601.32;;;17.79;31.97
39715;BME280;54166;53.172;-6.552;2023-04-21T00:30:14;99599.89;;;17.78;32.02
39715;BME280;54166;53.172;-6.552;2023-04-21T00:32:41;99596.66;;;18.18;31.97
39715;BME280;54166;53.172;-6.552;2023-04-21T00:35:09;99595.84;;;18.18;31.97
39715;BME280;54166;53.172;-6.552;2023-04-21T00:37:37;99595.89;;;17.76;32.01
39715;BME280;54166;53.172;-6.552;2023-04-21T00:40:06;99593.12;;;17.76;32.08
39715;BME280;54166;53.172;-6.552;2023-04-21T00:42:33;99593.40;;;18.16;32.09
39715;BME280;54166;53.172;-6.552;2023-04-21T00:45:01;99592.18;;;17.77;32.20
39715;BME280;54166;53.172;-6.552;2023-04-21T00:47:29;99589.70;;;17.76;32.14
39715;BME280;54166;53.172;-6.552;2023-04-21T00:49:58;99585.42;;;17.77;32.46
39715;BME280;54166;53.172;-6.552;2023-04-21T00:52:31;99581.60;;;17.76;32.25
39715;BME280;54166;53.172;-6.552;2023-04-21T00:55:00;99580.38;;;17.74;32.26
39715;BME280;54166;53.172;-6.552;2023-04-21T00:57:31;99580.55;;;17.73;32.11
39715;BME280;54166;53.172;-6.552;2023-04-21T00:59:58;99572.05;;;17.71;31.99
39715;BME280;54166;53.172;-6.552;2023-04-21T01:02:26;99570.34;;;17.69;31.94
39715;BME280;54166;53.172;-6.552;2023-04-21T01:04:59;99571.96;;;17.68;31.99
39715;BME280;54166;53.172;-6.552;2023-04-21T01:07:27;99575.57;;;17.67;32.02
39715;BME280;54166;53.172;-6.552;2023-04-21T01:09:55;99574.16;;;17.66;32.22
39715;BME280;54166;53.172;-6.552;2023-04-21T01:12:23;99576.65;;;18.05;32.18
39715;BME280;54166;53.172;-6.552;2023-04-21T01:14:51;99578.45;;;18.04;32.44
39715;BME280;54166;53.172;-6.552;2023-04-21T01:17:19;99574.61;;;17.63;32.54
39715;BME280;54166;53.172;-6.552;2023-04-21T01:19:47;99570.80;;;18.35;32.58
39715;BME280;54166;53.172;-6.552;2023-04-21T01:22:15;99565.10;;;18.00;32.58
39715;BME280;54166;53.172;-6.552;2023-04-21T01:24:45;99560.52;;;17.99;32.60
39715;BME280;54166;53.172;-6.552;2023-04-21T01:27:15;99560.88;;;17.57;32.45
39715;BME280;54166;53.172;-6.552;2023-04-21T01:29:50;99556.71;;;17.95;32.52
39715;BME280;54166;53.172;-6.552;2023-04-21T01:32:20;99552.09;;;17.93;32.53
39715;BME280;54166;53.172;-6.552;2023-04-21T01:34:49;99540.87;;;17.52;32.48
39715;BME280;54166;53.172;-6.552;2023-04-21T01:37:19;99542.54;;;17.51;32.47
39715;BME280;54166;53.172;-6.552;2023-04-21T01:39:50;99541.65;;;17.90;32.47
39715;BME280;54166;53.172;-6.552;2023-04-21T01:42:20;99522.32;;;18.21;32.39
39715;BME280;54166;53.172;-6.552;2023-04-21T01:44:49;99509.53;;;17.87;32.39
39715;BME280;54166;53.172;-6.552;2023-04-21T01:47:19;99501.65;;;17.87;32.36
39715;BME280;54166;53.172;-6.552;2023-04-21T01:49:46;99509.98;;;17.86;32.32
39715;BME280;54166;53.172;-6.552;2023-04-21T01:52:14;99503.08;;;17.45;32.27
39715;BME280;54166;53.172;-6.552;2023-04-21T01:54:42;99488.51;;;17.45;32.25
39715;BME280;54166;53.172;-6.552;2023-04-21T01:57:10;99476.63;;;17.84;32.22
39715;BME280;54166;53.172;-6.552;2023-04-21T01:59:39;99490.16;;;17.09;32.23
39715;BME280;54166;53.172;-6.552;2023-04-21T02:02:06;99472.34;;;17.82;32.22
39715;BME280;54166;53.172;-6.552;2023-04-21T02:04:35;99465.94;;;17.81;32.14
39715;BME280;54166;53.172;-6.552;2023-04-21T02:07:02;99494.89;;;17.40;32.20
39715;BME280;54166;53.172;-6.552;2023-04-21T02:09:31;99489.78;;;18.13;32.20
39715;BME280;54166;53.172;-6.552;2023-04-21T02:11:59;99500.83;;;17.39;32.22
39715;BME280;54166;53.172;-6.552;2023-04-21T02:14:27;99502.98;;;17.78;32.16
39715;BME280;54166;53.172;-6.552;2023-04-21T02:16:54;99494.65;;;17.35;32.18
39715;BME280;54166;53.172;-6.552;2023-04-21T02:19:22;99490.73;;;17.75;32.21
39715;BME280;54166;53.172;-6.552;2023-04-21T02:21:50;99495.71;;;17.74;32.14
39715;BME280;54166;53.172;-6.552;2023-04-21T02:24:18;99496.49;;;17.32;32.18
39715;BME280;54166;53.172;-6.552;2023-04-21T02:26:45;99501.23;;;17.31;32.19
39715;BME280;54166;53.172;-6.552;2023-04-21T02:29:13;99499.02;;;17.71;32.22
39715;BME280;54166;53.172;-6.552;2023-04-21T02:31:41;99496.44;;;17.71;32.23
39715;BME280;54166;53.172;-6.552;2023-04-21T02:34:09;99486.71;;;17.31;32.28
39715;BME280;54166;53.172;-6.552;2023-04-21T02:36:37;99477.59;;;17.31;32.29
39715;BME280;54166;53.172;-6.552;2023-04-21T02:39:05;99478.50;;;18.04;32.30
39715;BME280;54166;53.172;-6.552;2023-04-21T02:41:32;99473.99;;;18.04;32.48
39715;BME280;54166;53.172;-6.552;2023-04-21T02:44:00;99479.06;;;17.31;32.57
39715;BME280;54166;53.172;-6.552;2023-04-21T02:46:28;99479.00;;;17.71;32.61
39715;BME280;54166;53.172;-6.552;2023-04-21T02:48:56;99477.22;;;17.69;32.50
39715;BME280;54166;53.172;-6.552;2023-04-21T02:51:24;99463.85;;;18.03;32.67
39715;BME280;54166;53.172;-6.552;2023-04-21T02:53:51;99466.52;;;17.70;32.66
39715;BME280;54166;53.172;-6.552;2023-04-21T02:56:19;99451.77;;;17.29;32.67
39715;BME280;54166;53.172;-6.552;2023-04-21T02:58:47;99439.70;;;17.69;32.98
39715;BME280;54166;53.172;-6.552;2023-04-21T03:01:15;99437.39;;;17.28;32.73
39715;BME280;54166;53.172;-6.552;2023-04-21T03:03:42;99430.54;;;17.69;33.05
39715;BME280;54166;53.172;-6.552;2023-04-21T03:06:10;99425.71;;;18.02;32.90
39715;BME280;54166;53.172;-6.552;2023-04-21T03:08:38;99424.87;;;18.02;32.93
39715;BME280;54166;53.172;-6.552;2023-04-21T03:11:06;99416.48;;;17.68;32.95
39715;BME280;54166;53.172;-6.552;2023-04-21T03:13:34;99420.75;;;17.68;32.72
39715;BME280;54166;53.172;-6.552;2023-04-21T03:16:01;99422.08;;;18.01;32.84
39715;BME280;54166;53.172;-6.552;2023-04-21T03:18:29;99414.72;;;17.67;32.89
39715;BME280;54166;53.172;-6.552;2023-04-21T03:20:59;99421.39;;;18.00;32.94
39715;BME280;54166;53.172;-6.552;2023-04-21T03:23:26;99417.78;;;17.27;33.11
39715;BME280;54166;53.172;-6.552;2023-04-21T03:25:54;99413.02;;;17.65;32.96
39715;BME280;54166;53.172;-6.552;2023-04-21T03:28:23;99420.68;;;17.65;32.99
39715;BME280;54166;53.172;-6.552;2023-04-21T03:30:50;99405.40;;;17.98;32.83
39715;BME280;54166;53.172;-6.552;2023-04-21T03:33:18;99394.92;;;17.65;32.94
39715;BME280;54166;53.172;-6.552;2023-04-21T03:35:46;99409.70;;;17.98;32.92
39715;BME280;54166;53.172;-6.552;2023-04-21T03:38:13;99422.89;;;17.63;32.93
39715;BME280;54166;53.172;-6.552;2023-04-21T03:40:41;99416.39;;;17.64;32.97
39715;BME280;54166;53.172;-6.552;2023-04-21T03:43:09;99418.90;;;17.22;32.99
39715;BME280;54166;53.172;-6.552;2023-04-21T03:45:37;99404.05;;;17.62;32.85
39715;BME280;54166;53.172;-6.552;2023-04-21T03:48:06;99393.19;;;17.61;32.75
39715;BME280;54166;53.172;-6.552;2023-04-21T03:50:33;99389.60;;;17.60;32.85
39715;BME280;54166;53.172;-6.552;2023-04-21T03:53:01;99384.56;;;17.60;32.86
39715;BME280;54166;53.172;-6.552;2023-04-21T03:55:30;99392.21;;;17.92;33.07
39715;BME280;54166;53.172;-6.552;2023-04-21T03:57:57;99393.63;;;17.92;32.92
39715;BME280;54166;53.172;-6.552;2023-04-21T04:00:25;99381.85;;;17.58;32.79
39715;BME280;54166;53.172;-6.552;2023-04-21T04:02:53;99386.52;;;17.57;32.85
39715;BME280;54166;53.172;-6.552;2023-04-21T04:05:20;99387.56;;;17.56;32.84
39715;BME280;54166;53.172;-6.552;2023-04-21T04:07:48;99388.09;;;17.16;32.87
39715;BME280;54166;53.172;-6.552;2023-04-21T04:10:16;99394.67;;;17.55;32.89
39715;BME280;54166;53.172;-6.552;2023-04-21T04:12:44;99380.23;;;17.54;32.86
39715;BME280;54166;53.172;-6.552;2023-04-21T04:15:12;99369.98;;;17.53;32.87
39715;BME280;54166;53.172;-6.552;2023-04-21T04:17:40;99361.02;;;17.52;32.80
39715;BME280;54166;53.172;-6.552;2023-04-21T04:20:08;99368.32;;;17.51;32.83
39715;BME280;54166;53.172;-6.552;2023-04-21T04:22:36;99364.40;;;17.50;32.81
39715;BME280;54166;53.172;-6.552;2023-04-21T04:25:04;99364.69;;;17.10;32.75
39715;BME280;54166;53.172;-6.552;2023-04-21T04:27:32;99365.58;;;17.49;32.89
39715;BME280;54166;53.172;-6.552;2023-04-21T04:29:59;99365.95;;;17.48;32.79
39715;BME280;54166;53.172;-6.552;2023-04-21T04:32:27;99366.97;;;17.81;32.80
39715;BME280;54166;53.172;-6.552;2023-04-21T04:35:00;99362.02;;;17.47;32.83
39715;BME280;54166;53.172;-6.552;2023-04-21T04:37:28;99361.32;;;17.45;32.82
39715;BME280;54166;53.172;-6.552;2023-04-21T04:39:56;99372.49;;;17.78;32.89
39715;BME280;54166;53.172;-6.552;2023-04-21T04:42:24;99363.30;;;17.44;32.89
39715;BME280;54166;53.172;-6.552;2023-04-21T04:44:53;99354.67;;;17.43;32.84
39715;BME280;54166;53.172;-6.552;2023-04-21T04:47:20;99347.95;;;17.74;32.86
39715;BME280;54166;53.172;-6.552;2023-04-21T04:55:42;99357.94;;;18.07;33.90
39715;BME280;54166;53.172;-6.552;2023-04-21T04:58:09;99351.26;;;16.71;33.24
39715;BME280;54166;53.172;-6.552;2023-04-21T05:00:37;99349.77;;;17.37;32.86
39715;BME280;54166;53.172;-6.552;2023-04-21T05:03:05;99346.62;;;17.35;33.02
39715;BME280;54166;53.172;-6.552;2023-04-21T05:05:33;99336.90;;;17.67;32.99
39715;BME280;54166;53.172;-6.552;2023-04-21T05:08:01;99332.81;;;17.66;32.95
39715;BME280;54166;53.172;-6.552;2023-04-21T05:10:28;99337.31;;;17.65;32.96
39715;BME280;54166;53.172;-6.552;2023-04-21T05:12:57;99342.30;;;17.65;32.91
39715;BME280;54166;53.172;-6.552;2023-04-21T05:15:24;99349.22;;;17.65;32.83
39715;BME280;54166;53.172;-6.552;2023-04-21T05:17:52;99361.27;;;17.31;32.89
39715;BME280;54166;53.172;-6.552;2023-04-21T05:20:20;99342.49;;;17.31;32.92
39715;BME280;54166;53.172;-6.552;2023-04-21T05:22:47;99343.20;;;17.31;32.86
39715;BME280;54166;53.172;-6.552;2023-04-21T05:25:15;99343.83;;;17.31;32.93
39715;BME280;54166;53.172;-6.552;2023-04-21T05:27:43;99338.41;;;17.32;32.95
39715;BME280;54166;53.172;-6.552;2023-04-21T05:30:11;99330.15;;;16.92;32.97
39715;BME280;54166;53.172;-6.552;2023-04-21T05:32:39;99334.33;;;17.35;32.95
39715;BME280;54166;53.172;-6.552;2023-04-21T05:35:07;99333.54;;;17.31;32.84
39715;BME280;54166;53.172;-6.552;2023-04-21T05:37:34;99321.89;;;17.62;32.85
39715;BME280;54166;53.172;-6.552;2023-04-21T05:40:02;99325.00;;;17.28;32.97
39715;BME280;54166;53.172;-6.552;2023-04-21T05:42:30;99320.65;;;17.27;32.88
39715;BME280;54166;53.172;-6.552;2023-04-21T05:44:58;99315.88;;;16.87;32.90
39715;BME280;54166;53.172;-6.552;2023-04-21T05:47:26;99314.19;;;17.60;32.93
39715;BME280;54166;53.172;-6.552;2023-04-21T05:49:53;99308.63;;;17.27;32.90
39715;BME280;54166;53.172;-6.552;2023-04-21T05:52:21;99302.96;;;17.61;32.90
39715;BME280;54166;53.172;-6.552;2023-04-21T05:54:49;99317.22;;;17.27;32.97
39715;BME280;54166;53.172;-6.552;2023-04-21T05:57:17;99317.15;;;17.26;32.99
39715;BME280;54166;53.172;-6.552;2023-04-21T05:59:45;99320.06;;;17.26;32.97
39715;BME280;54166;53.172;-6.552;2023-04-21T06:02:13;99317.79;;;17.59;32.87
39715;BME280;54166;53.172;-6.552;2023-04-21T06:04:41;99321.61;;;16.85;32.94
39715;BME280;54166;53.172;-6.552;2023-04-21T06:07:09;99322.84;;;17.58;32.98
39715;BME280;54166;53.172;-6.552;2023-04-21T06:09:38;99327.75;;;17.59;33.03
39715;BME280;54166;53.172;-6.552;2023-04-21T06:12:06;99318.23;;;17.25;33.02
39715;BME280;54166;53.172;-6.552;2023-04-21T06:14:33;99318.37;;;17.58;32.95
39715;BME280;54166;53.172;-6.552;2023-04-21T06:17:01;99314.00;;;17.59;33.03
39715;BME280;54166;53.172;-6.552;2023-04-21T06:19:29;99317.25;;;17.59;33.02
39715;BME280;54166;53.172;-6.552;2023-04-21T06:21:57;99309.82;;;17.57;33.01
39715;BME280;54166;53.172;-6.552;2023-04-21T06:24:25;99319.11;;;17.57;33.11
39715;BME280;54166;53.172;-6.552;2023-04-21T06:26:53;99313.83;;;17.21;33.01
39715;BME280;54166;53.172;-6.552;2023-04-21T06:29:20;99308.93;;;17.56;33.13
39715;BME280;54166;53.172;-6.552;2023-04-21T06:31:48;99303.44;;;17.25;33.12
39715;BME280;54166;53.172;-6.552;2023-04-21T06:34:16;99298.20;;;17.58;32.98
39715;BME280;54166;53.172;-6.552;2023-04-21T06:36:44;99290.89;;;17.58;32.77
39715;BME280;54166;53.172;-6.552;2023-04-21T06:39:12;99287.49;;;17.56;32.61
39715;BME280;54166;53.172;-6.552;2023-04-21T06:41:40;99282.23;;;17.22;32.45
39715;BME280;54166;53.172;-6.552;2023-04-21T06:44:08;99285.00;;;17.21;32.41
39715;BME280;54166;53.172;-6.552;2023-04-21T06:46:36;99280.79;;;17.54;32.35
39715;BME280;54166;53.172;-6.552;2023-04-21T06:49:04;99271.64;;;17.53;32.39
39715;BME280;54166;53.172;-6.552;2023-04-21T06:51:32;99262.93;;;17.53;32.47
39715;BME280;54166;53.172;-6.552;2023-04-21T06:54:00;99256.85;;;17.53;32.40
39715;BME280;54166;53.172;-6.552;2023-04-21T06:56:28;99246.14;;;17.59;32.55
39715;BME280;54166;53.172;-6.552;2023-04-21T06:58:55;99252.86;;;17.25;32.45
39715;BME280;54166;53.172;-6.552;2023-04-21T07:01:23;99260.46;;;17.57;32.58
39715;BME280;54166;53.172;-6.552;2023-04-21T07:03:51;99263.42;;;17.55;32.50
39715;BME280;54166;53.172;-6.552;2023-04-21T07:06:19;99255.75;;;17.52;32.50
39715;BME280;54166;53.172;-6.552;2023-04-21T07:08:47;99254.81;;;17.51;32.52
39715;BME280;54166;53.172;-6.552;2023-04-21T07:11:15;99249.57;;;17.20;32.51
39715;BME280;54166;53.172;-6.552;2023-04-21T07:13:43;99254.42;;;17.21;32.42
39715;BME280;54166;53.172;-6.552;2023-04-21T07:16:11;99269.44;;;17.52;32.44
39715;BME280;54166;53.172;-6.552;2023-04-21T07:18:40;99267.43;;;17.19;32.44
39715;BME280;54166;53.172;-6.552;2023-04-21T07:21:07;99270.92;;;17.49;32.48
39715;BME280;54166;53.172;-6.552;2023-04-21T07:23:35;99271.30;;;17.15;32.49
39715;BME280;54166;53.172;-6.552;2023-04-21T07:26:04;99274.75;;;17.47;32.47
39715;BME280;54166;53.172;-6.552;2023-04-21T07:28:32;99277.55;;;17.46;32.48
39715;BME280;54166;53.172;-6.552;2023-04-21T07:31:00;99275.42;;;17.46;32.51
39715;BME280;54166;53.172;-6.552;2023-04-21T07:33:27;99273.95;;;17.13;32.48
39715;BME280;54166;53.172;-6.552;2023-04-21T07:35:55;99275.68;;;17.46;32.54
39715;BME280;54166;53.172;-6.552;2023-04-21T07:38:24;99272.39;;;17.15;32.58
39715;BME280;54166;53.172;-6.552;2023-04-21T07:40:52;99279.15;;;17.47;32.71
39715;BME280;54166;53.172;-6.552;2023-04-21T07:43:21;99274.22;;;17.48;32.69
39715;BME280;54166;53.172;-6.552;2023-04-21T07:45:48;99274.03;;;17.48;32.72
39715;BME280;54166;53.172;-6.552;2023-04-21T07:48:17;99268.58;;;17.14;32.66
39715;BME280;54166;53.172;-6.552;2023-04-21T07:50:44;99248.78;;;17.48;32.94
39715;BME280;54166;53.172;-6.552;2023-04-21T07:53:12;99236.33;;;17.50;33.04
39715;BME280;54166;53.172;-6.552;2023-04-21T07:55:40;99230.63;;;17.17;33.04
39715;BME280;54166;53.172;-6.552;2023-04-21T07:58:08;99225.62;;;17.50;32.97
39715;BME280;54166;53.172;-6.552;2023-04-21T08:00:36;99224.42;;;17.50;32.82
39715;BME280;54166;53.172;-6.552;2023-04-21T08:03:04;99222.62;;;17.51;32.64
39715;BME280;54166;53.172;-6.552;2023-04-21T08:05:32;99222.05;;;17.51;32.57
39715;BME280;54166;53.172;-6.552;2023-04-21T08:08:00;99228.90;;;17.52;32.48
39715;BME280;54166;53.172;-6.552;2023-04-21T08:10:28;99224.15;;;17.18;32.49
39715;BME280;54166;53.172;-6.552;2023-04-21T08:12:55;99225.61;;;17.18;32.53
39715;BME280;54166;53.172;-6.552;2023-04-21T08:15:23;99230.56;;;17.17;32.51
39715;BME280;54166;53.172;-6.552;2023-04-21T08:17:51;99234.45;;;17.52;32.63
39715;BME280;54166;53.172;-6.552;2023-04-21T08:20:19;99235.65;;;17.20;32.59
39715;BME280;54166;53.172;-6.552;2023-04-21T08:22:54;99243.64;;;17.21;32.59
39715;BME280;54166;53.172;-6.552;2023-04-21T08:25:26;99247.53;;;17.57;32.58
39715;BME280;54166;53.172;-6.552;2023-04-21T08:28:00;99254.57;;;17.54;32.69
39715;BME280;54166;53.172;-6.552;2023-04-21T08:30:28;99258.53;;;17.50;32.69
39715;BME280;54166;53.172;-6.552;2023-04-21T08:32:55;99253.47;;;17.16;32.80
39715;BME280;54166;53.172;-6.552;2023-04-21T08:35:23;99242.15;;;17.50;32.79
39715;BME280;54166;53.172;-6.552;2023-04-21T08:37:51;99235.33;;;17.50;32.76
39715;BME280;54166;53.172;-6.552;2023-04-21T08:40:19;99228.06;;;17.50;32.66
39715;BME280;54166;53.172;-6.552;2023-04-21T08:42:47;99226.66;;;17.17;32.67
39715;BME280;54166;53.172;-6.552;2023-04-21T08:45:15;99221.36;;;17.18;32.69
39715;BME280;54166;53.172;-6.552;2023-04-21T08:47:43;99214.80;;;17.19;32.83
39715;BME280;54166;53.172;-6.552;2023-04-21T08:50:13;99209.17;;;17.18;32.71
39715;BME280;54166;53.172;-6.552;2023-04-21T08:52:41;99207.65;;;17.19;32.79
39715;BME280;54166;53.172;-6.552;2023-04-21T08:55:10;99211.26;;;17.51;32.78
39715;BME280;54166;53.172;-6.552;2023-04-21T08:57:37;99205.07;;;17.18;32.73
39715;BME280;54166;53.172;-6.552;2023-04-21T09:00:06;99205.75;;;17.17;32.77
39715;BME280;54166;53.172;-6.552;2023-04-21T09:02:52;99192.56;;;17.16;32.85
39715;BME280;54166;53.172;-6.552;2023-04-21T09:05:22;99176.95;;;17.13;32.85
39715;BME280;54166;53.172;-6.552;2023-04-21T09:07:49;99179.22;;;17.14;32.86
39715;BME280;54166;53.172;-6.552;2023-04-21T09:10:22;99176.60;;;17.49;32.91
39715;BME280;54166;53.172;-6.552;2023-04-21T09:12:50;99179.95;;;17.48;32.84
39715;BME280;54166;53.172;-6.552;2023-04-21T09:15:20;99177.18;;;17.14;32.80
39715;BME280;54166;53.172;-6.552;2023-04-21T09:17:54;99178.51;;;17.47;32.79
39715;BME280;54166;53.172;-6.552;2023-04-21T09:20:23;99172.83;;;17.12;32.73
39715;BME280;54166;53.172;-6.552;2023-04-21T09:22:51;99169.83;;;17.12;32.64
39715;BME280;54166;53.172;-6.552;2023-04-21T09:25:20;99168.12;;;17.13;32.65
39715;BME280;54166;53.172;-6.552;2023-04-21T09:27:48;99165.49;;;17.46;32.64
39715;BME280;54166;53.172;-6.552;2023-04-21T09:30:18;99162.68;;;17.14;32.72
39715;BME280;54166;53.172;-6.552;2023-04-21T09:32:46;99156.01;;;17.16;32.69
39715;BME280;54166;53.172;-6.552;2023-04-21T09:35:14;99154.38;;;17.52;32.74
39715;BME280;54166;53.172;-6.552;2023-04-21T09:37:43;99152.75;;;17.20;32.72
39715;BME280;54166;53.172;-6.552;2023-04-21T09:40:16;99147.43;;;17.21;32.67
39715;BME280;54166;53.172;-6.552;2023-04-21T09:42:45;99153.76;;;17.22;32.67
39715;BME280;54166;53.172;-6.552;2023-04-21T09:45:13;99152.12;;;17.57;32.69
39715;BME280;54166;53.172;-6.552;2023-04-21T09:47:42;99154.19;;;17.58;32.69
39715;BME280;54166;53.172;-6.552;2023-04-21T09:50:12;99152.46;;;17.58;32.70
39715;BME280;54166;53.172;-6.552;2023-04-21T09:52:43;99145.88;;;17.59;32.73
39715;BME280;54166;53.172;-6.552;2023-04-21T09:55:12;99141.33;;;17.59;32.77
39715;BME280;54166;53.172;-6.552;2023-04-21T09:57:41;99138.90;;;17.60;32.74
39715;BME280;54166;53.172;-6.552;2023-04-21T10:00:14;99135.11;;;17.61;32.80
39715;BME280;54166;53.172;-6.552;2023-04-21T10:02:44;99132.51;;;17.62;32.78
39715;BME280;54166;53.172;-6.552;2023-04-21T10:05:15;99127.74;;;17.61;32.79
39715;BME280;54166;53.172;-6.552;2023-04-21T10:07:43;99134.23;;;17.29;32.81
39715;BME280;54166;53.172;-6.552;2023-04-21T10:10:17;99134.16;;;17.64;32.83
39715;BME280;54166;53.172;-6.552;2023-04-21T10:12:46;99128.17;;;17.29;32.83
39715;BME280;54166;53.172;-6.552;2023-04-21T10:15:29;99124.11;;;17.65;32.85
39715;BME280;54166;53.172;-6.552;2023-04-21T10:18:11;99119.45;;;17.31;32.88
39715;BME280;54166;53.172;-6.552;2023-04-21T10:21:02;99120.31;;;17.32;32.92
39715;BME280;54166;53.172;-6.552;2023-04-21T10:23:35;99118.23;;;16.89;32.95
39715;BME280;54166;53.172;-6.552;2023-04-21T10:26:06;99118.12;;;17.65;32.94
39715;BME280;54166;53.172;-6.552;2023-04-21T10:28:44;99115.54;;;17.34;32.90
39715;BME280;54166;53.172;-6.552;2023-04-21T10:31:18;99111.41;;;17.34;33.33
39715;BME280;54166;53.172;-6.552;2023-04-21T10:35:09;99105.12;;;18.24;33.25
39715;BME280;54166;53.172;-6.552;2023-04-21T10:37:37;99108.00;;;17.19;33.18
39715;BME280;54166;53.172;-6.552;2023-04-21T10:40:32;99098.85;;;17.64;33.04
39715;BME280;54166;53.172;-6.552;2023-04-21T10:43:02;99086.37;;;17.22;33.17
39715;BME280;54166;53.172;-6.552;2023-04-21T10:45:30;99085.48;;;17.33;33.13
39715;BME280;54166;53.172;-6.552;2023-04-21T10:47:59;99073.49;;;17.66;33.12
39715;BME280;54166;53.172;-6.552;2023-04-21T10:50:28;99067.96;;;17.39;33.06
39715;BME280;54166;53.172;-6.552;2023-04-21T10:53:05;99062.86;;;17.75;33.08
39715;BME280;54166;53.172;-6.552;2023-04-21T10:55:34;99064.59;;;17.75;33.06
39715;BME280;54166;53.172;-6.552;2023-04-21T10:58:03;99058.08;;;17.43;33.03
39715;BME280;54166;53.172;-6.552;2023-04-21T11:00:31;99059.65;;;17.41;33.06
39715;BME280;54166;53.172;-6.552;2023-04-21T11:03:01;99053.10;;;17.09;33.00
39715;BME280;54166;53.172;-6.552;2023-04-21T11:05:32;99038.17;;;17.53;32.97
39715;BME280;54166;53.172;-6.552;2023-04-21T11:08:04;99045.41;;;17.56;33.10
39715;BME280;54166;53.172;-6.552;2023-04-21T11:10:44;99045.84;;;17.12;33.14
39715;BME280;54166;53.172;-6.552;2023-04-21T11:13:12;99054.55;;;17.60;33.14
39715;BME280;54166;53.172;-6.552;2023-04-21T11:15:41;99054.52;;;17.99;33.12
39715;BME280;54166;53.172;-6.552;2023-04-21T11:18:09;99053.44;;;17.30;33.07
39715;BME280;54166;53.172;-6.552;2023-04-21T11:20:40;99046.97;;;17.72;33.07
39715;BME280;54166;53.172;-6.552;2023-04-21T11:23:08;99043.81;;;17.33;33.09
39715;BME280;54166;53.172;-6.552;2023-04-21T11:25:35;99043.30;;;18.09;33.14
39715;BME280;54166;53.172;-6.552;2023-04-21T11:28:03;99036.22;;;17.77;33.17
39715;BME280;54166;53.172;-6.552;2023-04-21T11:30:32;99027.56;;;17.80;33.16
39715;BME280;54166;53.172;-6.552;2023-04-21T11:32:59;99024.21;;;17.82;33.13
39715;BME280;54166;53.172;-6.552;2023-04-21T11:35:27;99026.97;;;17.43;33.17
39715;BME280;54166;53.172;-6.552;2023-04-21T11:37:55;99022.34;;;17.84;33.42
39715;BME280;54166;53.172;-6.552;2023-04-21T11:40:23;99019.39;;;17.50;33.38
39715;BME280;54166;53.172;-6.552;2023-04-21T11:42:50;99009.01;;;17.47;33.54
39715;BME280;54166;53.172;-6.552;2023-04-21T11:45:18;99000.90;;;17.87;33.94
39715;BME280;54166;53.172;-6.552;2023-04-21T11:47:47;99004.89;;;17.41;34.23
39715;BME280;54166;53.172;-6.552;2023-04-21T11:50:29;99001.07;;;17.84;34.19
39715;BME280;54166;53.172;-6.552;2023-04-21T11:53:05;98996.80;;;17.82;34.19
39715;BME280;54166;53.172;-6.552;2023-04-21T11:55:37;98994.19;;;17.82;34.18
39715;BME280;54166;53.172;-6.552;2023-04-21T11:58:13;98997.68;;;17.50;34.25
39715;BME280;54166;53.172;-6.552;2023-04-21T12:00:44;98985.05;;;17.99;34.23
39715;BME280;54166;53.172;-6.552;2023-04-21T12:03:12;98982.04;;;17.57;34.34
39715;BME280;54166;53.172;-6.552;2023-04-21T12:05:41;98980.57;;;18.07;34.24
39715;BME280;54166;53.172;-6.552;2023-04-21T12:08:13;98971.01;;;17.70;34.22
39715;BME280;54166;53.172;-6.552;2023-04-21T12:10:44;98964.61;;;17.69;34.27
39715;BME280;54166;53.172;-6.552;2023-04-21T12:13:12;98945.52;;;17.73;34.24
39715;BME280;54166;53.172;-6.552;2023-04-21T12:15:43;98942.29;;;18.51;34.29
39715;BME280;54166;53.172;-6.552;2023-04-21T12:18:12;98944.46;;;17.81;34.07
39715;BME280;54166;53.172;-6.552;2023-04-21T12:20:49;98947.63;;;17.88;33.94
39715;BME280;54166;53.172;-6.552;2023-04-21T12:23:19;98947.94;;;17.92;33.89
39715;BME280;54166;53.172;-6.552;2023-04-21T12:25:50;98945.00;;;17.97;33.73
39715;BME280;54166;53.172;-6.552;2023-04-21T12:28:18;98935.85;;;17.98;33.69
39715;BME280;54166;53.172;-6.552;2023-04-21T12:30:46;98927.48;;;18.00;33.50
39715;BME280;54166;53.172;-6.552;2023-04-21T12:33:14;98922.43;;;18.00;33.47
39715;BME280;54166;53.172;-6.552;2023-04-21T12:35:42;98917.71;;;17.99;33.53
39715;BME280;54166;53.172;-6.552;2023-04-21T12:38:10;98921.67;;;17.98;33.37
39715;BME280;54166;53.172;-6.552;2023-04-21T12:40:37;98914.40;;;18.06;33.36
39715;BME280;54166;53.172;-6.552;2023-04-21T12:43:05;98922.05;;;18.05;33.45
39715;BME280;54166;53.172;-6.552;2023-04-21T12:45:33;98915.81;;;18.03;33.38
39715;BME280;54166;53.172;-6.552;2023-04-21T12:48:01;98904.97;;;17.72;33.47
39715;BME280;54166;53.172;-6.552;2023-04-21T12:50:29;98905.30;;;18.08;33.46
39715;BME280;54166;53.172;-6.552;2023-04-21T12:52:57;98899.13;;;18.09;33.62
39715;BME280;54166;53.172;-6.552;2023-04-21T12:55:24;98904.04;;;18.07;33.64
39715;BME280;54166;53.172;-6.552;2023-04-21T12:57:52;98901.46;;;17.40;33.72
39715;BME280;54166;53.172;-6.552;2023-04-21T13:00:22;98897.71;;;18.08;33.79
39715;BME280;54166;53.172;-6.552;2023-04-21T13:02:49;98894.22;;;18.08;33.87
39715;BME280;54166;53.172;-6.552;2023-04-21T13:05:17;98888.47;;;18.10;33.95